Time;durP1;ratioP1;P1;durP2;ratioP2;P2;SDS_P1;SDS_P2;PMS_P1;PMS_P2;Temp;Humidity;BMP_temperature;BMP_pressure;BME280_temperature;BME280_humidity;BME280_pressure;Samples;Min_cycle;Max_cycle;Signal;HPM_P1;HPM_P2
2023/03/31 00:01:44;;;;;;;10.40;2.15;;;12.00;99.90;;;;;;4176051;28;20044;-77
2023/03/31 00:03:45;;;;;;;3.97;1.58;;;12.00;99.90;;;;;;4189052;28;20036;-76
2023/03/31 00:05:46;;;;;;;5.43;1.50;;;12.00;99.90;;;;;;4177544;28;20464;-77
2023/03/31 00:07:47;;;;;;;4.15;1.65;;;12.10;99.90;;;;;;4170473;28;20028;-77
2023/03/31 00:09:48;;;;;;;6.18;1.63;;;12.10;99.90;;;;;;4178417;28;20546;-76
2023/03/31 00:11:49;;;;;;;4.97;1.58;;;12.00;99.90;;;;;;4187494;28;20041;-77
2023/03/31 00:13:50;;;;;;;5.70;1.52;;;12.00;99.90;;;;;;4177743;28;20127;-76
2023/03/31 00:16:00;;;;;;;3.08;1.33;;;12.00;99.90;;;;;;4171272;28;20467;-76
2023/03/31 00:18:01;;;;;;;6.03;1.73;;;12.00;99.90;;;;;;4186778;28;20024;-75
2023/03/31 00:20:04;;;;;;;5.45;1.30;;;12.00;99.90;;;;;;4192620;28;20067;-77
2023/03/31 00:22:05;;;;;;;5.40;1.52;;;12.00;99.90;;;;;;4185959;28;20024;-78
2023/03/31 00:24:06;;;;;;;9.10;1.80;;;12.00;99.90;;;;;;4191646;28;20380;-78
2023/03/31 00:26:07;;;;;;;5.43;1.90;;;12.00;99.90;;;;;;4188515;28;20028;-76
2023/03/31 00:28:07;;;;;;;4.45;1.35;;;11.90;99.90;;;;;;4190923;28;20055;-77
2023/03/31 00:30:09;;;;;;;3.60;1.35;;;12.00;99.90;;;;;;4180876;28;20029;-77
2023/03/31 00:32:10;;;;;;;7.28;1.58;;;12.00;99.90;;;;;;4176688;28;20508;-77
2023/03/31 00:34:11;;;;;;;4.00;1.33;;;12.00;99.90;;;;;;4180432;28;20380;-78
2023/03/31 00:36:11;;;;;;;9.48;2.08;;;12.00;99.90;;;;;;4186145;28;20055;-79
2023/03/31 00:38:12;;;;;;;3.83;1.65;;;12.00;99.90;;;;;;4205148;28;20056;-80
2023/03/31 00:40:13;;;;;;;7.75;1.42;;;12.00;99.90;;;;;;4197187;28;20051;-79
2023/03/31 00:42:13;;;;;;;7.60;1.70;;;12.00;99.90;;;;;;4186878;28;20036;-80
2023/03/31 00:44:17;;;;;;;3.65;1.15;;;12.00;99.90;;;;;;4184379;28;20025;-80
2023/03/31 00:46:26;;;;;;;5.53;1.23;;;12.00;99.90;;;;;;4179366;28;20040;-81
2023/03/31 00:48:27;;;;;;;3.25;1.35;;;12.00;99.90;;;;;;4187703;28;20158;-81
2023/03/31 00:50:33;;;;;;;6.60;1.95;;;12.00;99.90;;;;;;4179000;28;20037;-81
2023/03/31 00:52:36;;;;;;;5.55;1.30;;;11.90;99.90;;;;;;4177636;28;20047;-81
2023/03/31 00:54:38;;;;;;;7.15;1.83;;;11.90;99.90;;;;;;4186116;28;20394;-73
2023/03/31 00:56:42;;;;;;;7.45;1.58;;;11.90;99.90;;;;;;4176040;28;20036;-82
2023/03/31 00:58:44;;;;;;;5.68;1.60;;;11.90;99.90;;;;;;4181652;28;20029;-81
2023/03/31 01:00:47;;;;;;;6.00;1.55;;;11.90;99.90;;;;;;4184183;28;20124;-81
2023/03/31 01:02:58;;;;;;;5.38;1.50;;;11.80;99.90;;;;;;4184162;28;20527;-82
2023/03/31 01:05:01;;;;;;;11.95;2.25;;;11.90;99.90;;;;;;4183609;28;20033;-82
2023/03/31 01:07:11;;;;;;;4.40;1.52;;;11.80;99.90;;;;;;4162553;28;20561;-80
2023/03/31 01:09:13;;;;;;;5.90;1.35;;;11.90;99.90;;;;;;4174261;28;20100;-83
2023/03/31 01:11:17;;;;;;;5.60;1.65;;;11.90;99.90;;;;;;4185858;28;20036;-83
2023/03/31 01:13:19;;;;;;;5.85;1.20;;;11.80;99.90;;;;;;4179929;28;20033;-81
2023/03/31 01:15:20;;;;;;;5.35;1.50;;;11.90;99.90;;;;;;4182936;28;20045;-82
2023/03/31 01:17:22;;;;;;;2.70;1.05;;;11.80;99.90;;;;;;4186700;28;20032;-82
2023/03/31 01:19:48;;;;;;;2.03;0.93;;;11.80;99.90;;;;;;4200483;28;20036;-82
2023/03/31 01:22:10;;;;;;;3.58;1.48;;;11.90;99.90;;;;;;4173014;28;20025;-82
2023/03/31 01:24:48;;;;;;;4.78;1.17;;;11.90;99.90;;;;;;4180759;28;20071;-81
2023/03/31 01:26:52;;;;;;;5.25;1.13;;;11.90;99.90;;;;;;4185887;28;20120;-83
2023/03/31 01:29:11;;;;;;;5.85;1.48;;;11.90;99.90;;;;;;4204271;28;20024;-81
2023/03/31 01:31:49;;;;;;;5.10;1.60;;;11.90;99.90;;;;;;4187148;28;20074;-80
2023/03/31 01:33:49;;;;;;;4.75;1.15;;;11.90;99.90;;;;;;4193167;28;20491;-81
2023/03/31 01:36:11;;;;;;;5.53;1.40;;;11.90;99.90;;;;;;4180890;28;20041;-83
2023/03/31 01:38:34;;;;;;;5.45;1.33;;;11.90;99.90;;;;;;4183591;28;20136;-81
2023/03/31 01:40:44;;;;;;;3.65;1.23;;;11.90;99.90;;;;;;4179104;28;20076;-82
2023/03/31 01:42:55;;;;;;;4.10;1.30;;;11.90;99.90;;;;;;4177736;28;20037;-82
2023/03/31 01:45:26;;;;;;;3.40;1.05;;;11.90;99.90;;;;;;4175987;28;20026;-80
2023/03/31 01:47:58;;;;;;;4.50;1.17;;;11.90;99.90;;;;;;4170161;28;20045;-79
2023/03/31 01:50:07;;;;;;;3.40;0.90;;;11.90;99.90;;;;;;4171415;28;20473;-80
2023/03/31 01:52:18;;;;;;;5.50;1.17;;;11.90;99.90;;;;;;4166812;28;20038;-71
2023/03/31 01:54:27;;;;;;;5.00;1.30;;;11.90;99.90;;;;;;4170220;28;20037;-79
2023/03/31 01:56:38;;;;;;;5.88;1.50;;;11.90;99.90;;;;;;4170281;28;20048;-81
2023/03/31 01:58:42;;;;;;;8.05;1.63;;;11.90;99.90;;;;;;4166396;28;20033;-79
2023/03/31 02:00:55;;;;;;;3.65;1.25;;;11.90;99.90;;;;;;4167558;28;20076;-79
2023/03/31 02:02:56;;;;;;;;;;;11.90;99.90;;;;;;4170294;28;20053;-80
2023/03/31 02:05:05;;;;;;;3.72;1.15;;;11.90;99.90;;;;;;4169292;28;19909;-80
2023/03/31 02:07:13;;;;;;;8.50;1.55;;;11.90;99.90;;;;;;4165255;28;20083;-81
2023/03/31 02:09:18;;;;;;;7.30;1.75;;;11.90;99.90;;;;;;4165918;28;20036;-79
2023/03/31 02:11:21;;;;;;;5.75;1.35;;;11.90;99.90;;;;;;4164723;28;20030;-80
2023/03/31 02:13:24;;;;;;;4.90;1.60;;;11.90;99.90;;;;;;4172620;28;20060;-80
2023/03/31 02:15:27;;;;;;;;;;;11.90;99.90;;;;;;4170108;28;20036;-79
2023/03/31 02:17:31;;;;;;;4.30;1.13;;;11.90;99.90;;;;;;4172728;28;19958;-80
2023/03/31 02:19:38;;;;;;;8.32;1.48;;;11.90;99.90;;;;;;4170932;28;20036;-76
2023/03/31 02:21:40;;;;;;;4.22;1.40;;;11.90;99.90;;;;;;4168617;28;20087;-79
2023/03/31 02:23:43;;;;;;;9.45;2.17;;;11.80;99.90;;;;;;4170580;28;20551;-80
2023/03/31 02:25:50;;;;;;;5.35;1.33;;;11.80;99.90;;;;;;4168238;28;20025;-81
2023/03/31 02:27:58;;;;;;;9.40;1.60;;;11.80;99.90;;;;;;4171617;28;20025;-80
2023/03/31 02:29:59;;;;;;;6.15;1.52;;;11.80;99.90;;;;;;4166646;28;20021;-81
2023/03/31 02:32:09;;;;;;;5.57;1.70;;;11.80;99.90;;;;;;4163475;28;20044;-81
2023/03/31 02:34:10;;;;;;;8.43;1.70;;;11.70;99.90;;;;;;4174482;28;20112;-80
2023/03/31 02:36:11;;;;;;;8.85;2.15;;;11.70;99.90;;;;;;4166319;28;20484;-79
2023/03/31 02:38:11;;;;;;;10.45;2.42;;;11.70;99.90;;;;;;4183427;28;20515;-80
2023/03/31 02:40:17;;;;;;;8.82;2.28;;;11.70;99.90;;;;;;4186323;28;20375;-79
2023/03/31 02:42:19;;;;;;;6.60;1.80;;;11.70;99.90;;;;;;4184226;28;20044;-79
2023/03/31 02:44:20;;;;;;;7.65;1.98;;;11.70;99.90;;;;;;4180221;28;20040;-79
2023/03/31 02:46:21;;;;;;;8.52;1.85;;;11.80;99.90;;;;;;4181361;28;20036;-80
2023/03/31 02:48:27;;;;;;;7.40;2.10;;;11.80;99.90;;;;;;4183527;28;20048;-79
2023/03/31 02:50:48;;;;;;;14.32;2.40;;;11.80;99.90;;;;;;4184339;28;20028;-80
2023/03/31 02:53:09;;;;;;;7.80;2.05;;;11.80;99.90;;;;;;4183621;28;20103;-79
2023/03/31 02:55:19;;;;;;;7.32;2.00;;;11.70;99.90;;;;;;4186128;28;20025;-79
2023/03/31 02:57:45;;;;;;;5.40;1.75;;;11.80;99.90;;;;;;4177705;28;20501;-81
2023/03/31 03:00:07;;;;;;;6.80;2.05;;;11.80;99.90;;;;;;4182677;28;20408;-79
2023/03/31 03:02:16;;;;;;;14.20;2.78;;;11.80;99.90;;;;;;4181649;28;20074;-79
2023/03/31 03:04:20;;;;;;;7.63;2.47;;;11.80;99.90;;;;;;4188621;28;20028;-80
2023/03/31 03:06:52;;;;;;;9.63;2.50;;;11.80;99.90;;;;;;4182738;28;20041;-78
2023/03/31 03:09:15;;;;;;;9.45;2.03;;;11.80;99.90;;;;;;4191697;28;21189;-78
2023/03/31 03:11:35;;;;;;;;;;;11.80;99.90;;;;;;4171747;28;20029;-78
2023/03/31 03:13:48;;;;;;;13.32;2.17;;;11.80;99.90;;;;;;4169356;28;19916;-79
2023/03/31 03:15:51;;;;;;;;;;;11.80;99.90;;;;;;4163052;28;20036;-79
2023/03/31 03:17:54;;;;;;;11.98;2.63;;;11.80;99.90;;;;;;4167644;28;19908;-78
2023/03/31 03:19:59;;;;;;;11.23;2.58;;;11.80;99.90;;;;;;4176356;28;20111;-77
2023/03/31 03:22:00;;;;;;;9.70;2.58;;;11.80;99.90;;;;;;4175362;28;20108;-79
2023/03/31 03:24:00;;;;;;;7.22;2.17;;;11.80;99.90;;;;;;4170592;28;20049;-78
2023/03/31 03:26:01;;;;;;;10.70;2.20;;;11.90;99.90;;;;;;4171008;28;20420;-78
2023/03/31 03:28:01;;;;;;;11.80;2.40;;;11.80;99.90;;;;;;4172872;28;20040;-78
2023/03/31 03:30:05;;;;;;;7.93;2.38;;;11.80;99.90;;;;;;4175669;28;20037;-78
2023/03/31 03:32:05;;;;;;;6.00;1.83;;;11.80;99.90;;;;;;4173393;28;20044;-78
2023/03/31 03:34:08;;;;;;;9.30;2.42;;;11.80;99.90;;;;;;4186300;28;20029;-77
2023/03/31 03:36:09;;;;;;;10.45;2.22;;;11.80;99.90;;;;;;4190330;28;20174;-78
2023/03/31 03:38:10;;;;;;;7.45;2.10;;;11.80;99.90;;;;;;4192727;28;20052;-77
2023/03/31 03:40:11;;;;;;;9.82;2.10;;;11.90;99.90;;;;;;4188461;28;20052;-77
2023/03/31 03:42:11;;;;;;;10.82;2.60;;;11.80;99.90;;;;;;4190359;28;20036;-77
2023/03/31 03:44:12;;;;;;;10.85;2.60;;;11.80;99.90;;;;;;4176247;28;20095;-77
2023/03/31 03:46:13;;;;;;;8.52;2.17;;;11.80;99.90;;;;;;4169878;28;20059;-78
2023/03/31 03:48:13;;;;;;;9.73;2.55;;;11.80;99.90;;;;;;4168704;28;20488;-76
2023/03/31 03:50:14;;;;;;;10.68;2.25;;;11.80;99.90;;;;;;4168614;28;20396;-79
2023/03/31 03:52:15;;;;;;;10.68;2.08;;;11.80;99.90;;;;;;4171242;28;20041;-78
2023/03/31 03:54:16;;;;;;;7.13;1.60;;;11.80;99.90;;;;;;4177858;28;20484;-80
2023/03/31 03:56:16;;;;;;;9.25;1.98;;;11.80;99.90;;;;;;4170992;28;20037;-79
2023/03/31 03:58:20;;;;;;;5.22;1.88;;;11.80;99.90;;;;;;4171269;28;20114;-80
2023/03/31 04:00:21;;;;;;;5.00;1.55;;;11.80;99.90;;;;;;4168832;28;20041;-78
2023/03/31 04:02:21;;;;;;;8.25;1.65;;;11.80;99.90;;;;;;4171542;28;20117;-78
2023/03/31 04:04:22;;;;;;;8.82;1.88;;;11.80;99.90;;;;;;4174430;28;20364;-80
2023/03/31 04:06:22;;;;;;;8.68;2.42;;;11.80;99.90;;;;;;4179522;28;20041;-78
2023/03/31 04:08:23;;;;;;;8.82;2.20;;;11.80;99.90;;;;;;4179612;28;20399;-78
2023/03/31 04:10:24;;;;;;;13.13;2.42;;;11.80;99.90;;;;;;4184343;28;20040;-77
2023/03/31 04:12:25;;;;;;;10.48;2.55;;;11.80;99.90;;;;;;4176142;28;20404;-78
2023/03/31 04:14:25;;;;;;;6.13;2.25;;;11.80;99.90;;;;;;4173671;28;20117;-77
2023/03/31 04:16:26;;;;;;;11.18;2.47;;;11.80;99.90;;;;;;4171263;28;20037;-78
2023/03/31 04:18:26;;;;;;;9.27;2.08;;;11.70;99.90;;;;;;4169986;28;20049;-77
2023/03/31 04:20:29;;;;;;;8.70;2.28;;;11.80;99.90;;;;;;4167991;28;20037;-77
2023/03/31 04:22:33;;;;;;;;;;;11.80;99.90;;;;;;4172825;28;20120;-76
2023/03/31 04:24:37;;;;;;;9.05;1.98;;;11.70;99.90;;;;;;4186547;28;19957;-68
2023/03/31 04:26:41;;;;;;;10.18;2.00;;;11.70;99.90;;;;;;4169460;28;20033;-78
2023/03/31 04:28:45;;;;;;;11.95;2.17;;;11.70;99.90;;;;;;4189913;28;20048;-77
2023/03/31 04:30:46;;;;;;;11.30;2.15;;;11.70;99.90;;;;;;4187277;28;20476;-77
2023/03/31 04:32:49;;;;;;;8.90;2.17;;;11.60;99.90;;;;;;4184600;28;20040;-76
2023/03/31 04:34:49;;;;;;;11.77;1.88;;;11.60;99.90;;;;;;4167767;28;20046;-76
2023/03/31 04:36:50;;;;;;;8.07;1.90;;;11.60;99.90;;;;;;4175544;28;20036;-76
2023/03/31 04:38:53;;;;;;;7.35;1.65;;;11.60;99.90;;;;;;4182774;28;20032;-77
2023/03/31 04:40:55;;;;;;;7.47;2.00;;;11.60;99.90;;;;;;4178044;28;20047;-77
2023/03/31 04:42:55;;;;;;;7.50;2.30;;;11.60;99.90;;;;;;4179115;28;20036;-77
2023/03/31 04:44:56;;;;;;;6.47;2.10;;;11.60;99.90;;;;;;4185977;28;20037;-77
2023/03/31 04:46:57;;;;;;;5.30;1.55;;;11.60;99.90;;;;;;4179154;28;20049;-76
2023/03/31 04:48:59;;;;;;;6.43;1.90;;;11.60;99.90;;;;;;4186797;28;20033;-76
2023/03/31 04:51:00;;;;;;;4.18;1.58;;;11.60;99.90;;;;;;4171302;28;20163;-76
2023/03/31 04:53:02;;;;;;;7.85;1.60;;;11.60;99.90;;;;;;4190020;28;20040;-77
2023/03/31 04:55:03;;;;;;;6.47;1.67;;;11.60;99.90;;;;;;4188808;28;20052;-75
2023/03/31 04:57:03;;;;;;;9.77;2.05;;;11.60;99.90;;;;;;4188683;28;20043;-75
2023/03/31 04:59:04;;;;;;;2.90;1.15;;;11.60;99.90;;;;;;4183526;28;20120;-74
2023/03/31 05:01:07;;;;;;;2.58;0.95;;;11.60;99.90;;;;;;4180294;28;20024;-68
2023/03/31 05:03:08;;;;;;;4.95;1.20;;;11.60;99.90;;;;;;4184275;28;20025;-74
2023/03/31 05:05:09;;;;;;;6.22;1.58;;;11.50;99.90;;;;;;4184979;28;20036;-73
2023/03/31 05:07:10;;;;;;;6.68;1.55;;;11.50;99.90;;;;;;4185341;28;20021;-74
2023/03/31 05:09:11;;;;;;;4.82;1.20;;;11.50;99.90;;;;;;4182550;28;20045;-73
2023/03/31 05:11:11;;;;;;;6.45;1.83;;;11.50;99.90;;;;;;4168133;28;20544;-71
2023/03/31 05:13:12;;;;;;;9.52;1.75;;;11.50;99.90;;;;;;4172347;28;20427;-73
2023/03/31 05:15:12;;;;;;;8.75;2.08;;;11.50;99.90;;;;;;4171938;28;20036;-73
2023/03/31 05:17:13;;;;;;;7.00;1.58;;;11.50;99.90;;;;;;4164239;28;20108;-73
2023/03/31 05:19:13;;;;;;;5.03;1.63;;;11.50;99.90;;;;;;4173169;28;20037;-74
2023/03/31 05:21:17;;;;;;;5.85;1.58;;;11.40;99.90;;;;;;4167006;28;20128;-73
2023/03/31 05:23:17;;;;;;;6.10;1.63;;;11.50;99.90;;;;;;4167671;28;20527;-74
2023/03/31 05:25:18;;;;;;;7.68;1.90;;;11.40;99.90;;;;;;4171555;28;20079;-73
2023/03/31 05:27:20;;;;;;;7.30;2.05;;;11.40;99.90;;;;;;4167867;28;20033;-71
2023/03/31 05:29:21;;;;;;;6.60;1.60;;;11.40;99.90;;;;;;4172072;28;20478;-70
2023/03/31 05:31:22;;;;;;;8.40;1.70;;;11.40;99.90;;;;;;4168321;28;20045;-70
2023/03/31 05:33:23;;;;;;;7.57;1.67;;;11.40;99.90;;;;;;4174417;28;20033;-73
2023/03/31 05:35:23;;;;;;;5.85;1.88;;;11.40;99.90;;;;;;4169903;28;21036;-74
2023/03/31 05:37:25;;;;;;;5.55;1.55;;;11.40;99.90;;;;;;4171659;28;20048;-74
2023/03/31 05:39:31;;;;;;;10.23;2.35;;;11.40;99.90;;;;;;4183498;28;20476;-73
2023/03/31 05:41:32;;;;;;;4.38;1.77;;;11.30;99.90;;;;;;4182465;28;20033;-73
2023/03/31 05:43:33;;;;;;;6.95;1.92;;;11.40;99.90;;;;;;4174698;28;20033;-72
2023/03/31 05:45:33;;;;;;;9.55;1.80;;;11.40;99.90;;;;;;4167846;28;20049;-73
2023/03/31 05:47:34;;;;;;;6.18;1.50;;;11.30;99.90;;;;;;4169466;28;20029;-73
2023/03/31 05:49:35;;;;;;;4.75;1.42;;;11.40;99.90;;;;;;4176264;28;20028;-73
2023/03/31 05:51:35;;;;;;;6.30;1.77;;;11.30;99.90;;;;;;4178386;28;20034;-74
2023/03/31 05:53:36;;;;;;;5.22;1.67;;;11.40;99.90;;;;;;4164900;28;20110;-73
2023/03/31 05:55:37;;;;;;;5.90;1.83;;;11.40;99.90;;;;;;4183611;28;20029;-72
2023/03/31 05:57:38;;;;;;;5.00;1.67;;;11.40;99.90;;;;;;4169946;28;20033;-72
2023/03/31 05:59:40;;;;;;;3.60;1.60;;;11.40;99.90;;;;;;4183429;28;20383;-72
2023/03/31 06:01:41;;;;;;;;;;;11.40;99.90;;;;;;4184508;28;20083;-73
2023/03/31 06:03:42;;;;;;;4.60;1.48;;;11.40;99.90;;;;;;4185064;28;20012;-73
2023/03/31 06:05:47;;;;;;;5.72;1.70;;;11.40;99.90;;;;;;4166983;28;20089;-72
2023/03/31 06:07:48;;;;;;;4.80;1.30;;;11.40;99.90;;;;;;4183936;28;20531;-73
2023/03/31 06:09:48;;;;;;;4.63;1.20;;;11.40;99.90;;;;;;4178500;28;20091;-73
2023/03/31 06:11:49;;;;;;;3.17;1.42;;;11.40;99.90;;;;;;4185838;28;20047;-74
2023/03/31 06:13:49;;;;;;;6.35;1.77;;;11.40;99.90;;;;;;4184027;28;20057;-73
2023/03/31 06:15:58;;;;;;;4.88;1.73;;;11.40;99.90;;;;;;4181333;28;20029;-73
2023/03/31 06:17:59;;;;;;;4.22;1.45;;;11.40;99.90;;;;;;4188557;28;20043;-74
2023/03/31 06:19:59;;;;;;;7.32;1.65;;;11.40;99.90;;;;;;4178761;28;20029;-74
2023/03/31 06:22:00;;;;;;;6.10;1.48;;;11.40;99.90;;;;;;4153237;28;20115;-74
2023/03/31 06:24:01;;;;;;;4.43;1.38;;;11.50;99.90;;;;;;4167832;28;20057;-73
2023/03/31 06:26:07;;;;;;;3.70;1.08;;;11.40;99.90;;;;;;4168979;28;20087;-74
2023/03/31 06:28:07;;;;;;;4.63;1.45;;;11.50;99.90;;;;;;4182413;28;20043;-71
2023/03/31 06:30:08;;;;;;;4.30;1.35;;;11.50;99.90;;;;;;4180306;28;20075;-73
2023/03/31 06:32:09;;;;;;;3.55;1.35;;;11.50;99.90;;;;;;4182442;28;20025;-74
2023/03/31 06:34:10;;;;;;;5.60;1.50;;;11.40;99.90;;;;;;4184957;28;20056;-74
2023/03/31 06:36:13;;;;;;;7.43;1.38;;;11.40;99.90;;;;;;4167443;28;20061;-73
2023/03/31 06:38:14;;;;;;;5.70;1.48;;;11.40;99.90;;;;;;4182794;28;20132;-74
2023/03/31 06:40:15;;;;;;;3.47;1.20;;;11.40;99.90;;;;;;4186478;28;20487;-73
2023/03/31 06:42:15;;;;;;;4.68;1.73;;;11.40;99.90;;;;;;4183627;28;20033;-74
2023/03/31 06:44:18;;;;;;;4.78;1.30;;;11.40;99.90;;;;;;4183133;28;20040;-74
2023/03/31 06:46:18;;;;;;;3.15;1.08;;;11.40;99.90;;;;;;4183393;28;20040;-75
2023/03/31 06:48:19;;;;;;;4.03;1.10;;;11.40;99.90;;;;;;4172554;28;20049;-75
2023/03/31 06:50:19;;;;;;;3.88;1.20;;;11.40;99.90;;;;;;4165016;28;20033;-75
2023/03/31 06:52:20;;;;;;;3.40;0.93;;;11.40;99.90;;;;;;4173244;28;20036;-75
2023/03/31 06:54:20;;;;;;;6.78;1.52;;;11.40;99.90;;;;;;4172835;28;20029;-75
2023/03/31 06:56:21;;;;;;;6.30;1.40;;;11.40;99.90;;;;;;4170603;28;20029;-75
2023/03/31 06:58:22;;;;;;;3.60;1.45;;;11.40;99.90;;;;;;4174192;28;20025;-75
2023/03/31 07:00:24;;;;;;;3.58;1.17;;;11.40;99.90;;;;;;4171619;28;20037;-75
2023/03/31 07:02:25;;;;;;;;;;;11.40;99.90;;;;;;4183902;28;20045;-74
2023/03/31 07:04:25;;;;;;;6.32;1.48;;;11.40;99.90;;;;;;4181480;28;19931;-75
2023/03/31 07:06:26;;;;;;;3.80;1.17;;;11.40;99.90;;;;;;4182981;28;20123;-75
2023/03/31 07:08:27;;;;;;;5.47;1.30;;;11.40;99.90;;;;;;4181953;28;20087;-75
2023/03/31 07:10:29;;;;;;;4.50;1.13;;;11.40;99.90;;;;;;4184884;28;20116;-74
2023/03/31 07:12:32;;;;;;;3.97;1.20;;;11.40;99.90;;;;;;4180595;28;20081;-74
2023/03/31 07:14:33;;;;;;;3.15;1.20;;;11.40;99.90;;;;;;4183560;28;20045;-76
2023/03/31 07:16:35;;;;;;;6.50;1.17;;;11.40;99.90;;;;;;4183621;28;20388;-74
2023/03/31 07:18:36;;;;;;;4.63;1.50;;;11.40;99.90;;;;;;4165792;28;20128;-74
2023/03/31 07:20:37;;;;;;;4.18;1.40;;;11.40;99.90;;;;;;4182835;28;20132;-75
2023/03/31 07:22:40;;;;;;;4.07;1.27;;;11.40;99.90;;;;;;4180990;28;20056;-75
2023/03/31 07:24:40;;;;;;;;;;;11.40;99.90;;;;;;4180508;28;20025;-74
2023/03/31 07:26:41;;;;;;;5.03;1.08;;;11.30;99.90;;;;;;4179779;28;19965;-74
2023/03/31 07:28:41;;;;;;;4.95;1.45;;;11.30;99.90;;;;;;4184597;28;20028;-75
2023/03/31 07:30:42;;;;;;;3.13;1.27;;;11.30;99.90;;;;;;4185806;28;20045;-74
2023/03/31 07:32:46;;;;;;;3.88;1.58;;;11.30;99.90;;;;;;4181058;28;20033;-75
2023/03/31 07:34:46;;;;;;;4.78;1.63;;;11.30;99.90;;;;;;4183221;28;20510;-74
2023/03/31 07:36:47;;;;;;;7.35;1.63;;;11.30;99.90;;;;;;4178441;28;20044;-73
2023/03/31 07:38:48;;;;;;;3.58;1.27;;;11.30;99.90;;;;;;4180278;28;20043;-74
2023/03/31 07:40:49;;;;;;;4.72;1.38;;;11.30;99.90;;;;;;4183481;28;20045;-73
2023/03/31 07:42:51;;;;;;;6.88;1.83;;;11.20;99.90;;;;;;4182992;28;20032;-74
2023/03/31 07:44:51;;;;;;;5.47;1.52;;;11.30;99.90;;;;;;4165299;28;20037;-74
2023/03/31 07:46:52;;;;;;;6.65;1.88;;;11.30;99.90;;;;;;4184269;28;20400;-73
2023/03/31 07:48:55;;;;;;;7.07;1.92;;;11.20;99.90;;;;;;4184941;28;20033;-74
2023/03/31 07:50:56;;;;;;;6.35;1.73;;;11.20;99.90;;;;;;4163036;28;20033;-73
2023/03/31 07:52:56;;;;;;;8.25;1.30;;;11.20;99.90;;;;;;4183139;28;20121;-73
2023/03/31 07:54:57;;;;;;;6.68;2.00;;;11.30;99.90;;;;;;4184726;28;20033;-73
2023/03/31 07:57:00;;;;;;;7.80;1.33;;;11.30;99.90;;;;;;4168364;28;20411;-73
2023/03/31 07:59:01;;;;;;;6.07;1.60;;;11.30;99.90;;;;;;4175487;28;20048;-73
2023/03/31 08:01:02;;;;;;;4.32;1.35;;;11.40;99.90;;;;;;4176500;28;20036;-73
2023/03/31 08:03:02;;;;;;;4.15;1.30;;;11.40;99.90;;;;;;4186663;28;20115;-73
2023/03/31 08:05:04;;;;;;;9.68;2.00;;;11.40;99.90;;;;;;4182090;28;20037;-74
2023/03/31 08:07:05;;;;;;;6.13;1.60;;;11.50;99.90;;;;;;4166444;28;20029;-73
2023/03/31 08:09:06;;;;;;;4.78;1.50;;;11.50;99.90;;;;;;4169707;28;20033;-72
2023/03/31 08:11:07;;;;;;;6.38;2.05;;;11.60;99.90;;;;;;4166312;28;20037;-73
2023/03/31 08:13:08;;;;;;;6.38;1.80;;;11.60;99.90;;;;;;4168875;28;20037;-72
2023/03/31 08:15:09;;;;;;;4.45;1.55;;;11.60;99.90;;;;;;4164107;28;20029;-74
2023/03/31 08:17:10;;;;;;;5.70;1.98;;;11.70;99.90;;;;;;4168134;28;20025;-72
2023/03/31 08:19:10;;;;;;;4.47;1.45;;;11.70;99.90;;;;;;4173313;28;20602;-72
2023/03/31 08:21:11;;;;;;;11.02;1.98;;;11.70;99.90;;;;;;4175299;28;20060;-72
2023/03/31 08:23:12;;;;;;;7.47;2.08;;;11.80;99.90;;;;;;4176268;28;20083;-72
2023/03/31 08:25:12;;;;;;;13.57;2.42;;;11.80;99.90;;;;;;4174028;28;20030;-72
2023/03/31 08:27:13;;;;;;;6.53;1.58;;;11.80;99.90;;;;;;4169230;28;20068;-72
2023/03/31 08:29:14;;;;;;;9.95;2.22;;;11.90;99.90;;;;;;4172126;28;20033;-73
2023/03/31 08:31:16;;;;;;;7.03;1.88;;;11.90;99.90;;;;;;4184766;28;20033;-70
2023/03/31 08:33:16;;;;;;;8.88;2.15;;;12.00;99.90;;;;;;4182031;28;20052;-73
2023/03/31 08:35:17;;;;;;;8.43;1.77;;;12.00;99.90;;;;;;4187963;28;20033;-72
2023/03/31 08:37:17;;;;;;;5.93;1.90;;;12.00;99.90;;;;;;4174938;28;20045;-73
2023/03/31 08:39:18;;;;;;;11.93;2.47;;;12.00;99.90;;;;;;4171665;28;20529;-73
2023/03/31 08:41:21;;;;;;;9.85;2.35;;;12.00;99.90;;;;;;4168884;28;20037;-73
2023/03/31 08:43:27;;;;;;;4.65;1.70;;;12.00;99.90;;;;;;4173589;28;20037;-73
2023/03/31 08:45:34;;;;;;;9.18;2.13;;;12.10;99.90;;;;;;4175318;28;20033;-73
2023/03/31 08:47:37;;;;;;;9.07;1.88;;;12.10;99.90;;;;;;4168214;28;20087;-73
2023/03/31 08:49:46;;;;;;;8.82;2.55;;;12.10;99.90;;;;;;4164448;28;20034;-73
2023/03/31 08:51:58;;;;;;;6.32;1.58;;;12.10;99.90;;;;;;4185550;28;20036;-72
2023/03/31 08:54:03;;;;;;;7.65;2.00;;;12.10;99.90;;;;;;4190098;28;20068;-72
2023/03/31 08:56:08;;;;;;;11.55;2.63;;;12.10;99.90;;;;;;4179907;28;20048;-73
2023/03/31 08:58:20;;;;;;;6.22;1.83;;;12.10;99.90;;;;;;4180301;28;20029;-73
2023/03/31 09:00:21;;;;;;;9.40;2.20;;;12.10;99.90;;;;;;4179303;28;20380;-72
2023/03/31 09:02:51;;;;;;;9.65;2.20;;;12.10;99.90;;;;;;4181082;28;20028;-73
2023/03/31 09:05:06;;;;;;;12.38;2.75;;;12.10;99.90;;;;;;4181914;28;20504;-73
2023/03/31 09:07:28;;;;;;;10.23;2.33;;;12.10;99.90;;;;;;4183004;28;20033;-73
2023/03/31 09:09:58;;;;;;;7.32;2.28;;;12.10;99.90;;;;;;4165315;28;20037;-74
2023/03/31 09:12:06;;;;;;;10.60;2.60;;;12.20;99.90;;;;;;4158188;28;20094;-72
2023/03/31 09:14:25;;;;;;;13.95;2.50;;;12.20;99.90;;;;;;4171818;28;20053;-73
2023/03/31 09:16:29;;;;;;;12.60;2.90;;;12.20;99.90;;;;;;4180822;28;20422;-72
2023/03/31 09:18:34;;;;;;;9.35;2.63;;;12.20;99.90;;;;;;4163803;28;20037;-73
2023/03/31 09:20:41;;;;;;;14.32;2.83;;;12.30;99.90;;;;;;4162473;28;20053;-73
2023/03/31 09:22:50;;;;;;;9.55;2.45;;;12.30;99.90;;;;;;4167355;28;20041;-72
2023/03/31 09:24:54;;;;;;;11.65;2.60;;;12.30;99.90;;;;;;4170324;28;20420;-73
2023/03/31 09:27:00;;;;;;;13.18;2.85;;;12.40;99.90;;;;;;4166986;28;20025;-73
2023/03/31 09:29:06;;;;;;;11.73;2.65;;;12.40;99.90;;;;;;4169179;28;20034;-73
2023/03/31 09:31:16;;;;;;;11.43;2.90;;;12.50;99.90;;;;;;4174205;28;20103;-73
2023/03/31 09:33:22;;;;;;;7.63;2.55;;;12.50;99.90;;;;;;4181966;28;20040;-72
2023/03/31 09:35:25;;;;;;;8.60;2.47;;;12.60;99.90;;;;;;4167263;28;20526;-73
2023/03/31 09:37:29;;;;;;;12.90;2.88;;;12.70;99.90;;;;;;4173805;28;20041;-73
2023/03/31 09:39:30;;;;;;;13.65;2.55;;;12.70;99.90;;;;;;4174874;28;20041;-73
2023/03/31 09:41:30;;;;;;;9.43;2.63;;;12.70;99.90;;;;;;4163493;28;20138;-73
2023/03/31 09:43:34;;;;;;;13.80;3.22;;;12.80;99.90;;;;;;4164867;28;20044;-72
2023/03/31 09:45:35;;;;;;;9.80;3.15;;;12.90;99.90;;;;;;4168154;28;20033;-72
2023/03/31 09:47:48;;;;;;;7.05;2.40;;;13.00;99.90;;;;;;4169881;28;20041;-72
2023/03/31 09:49:49;;;;;;;15.52;3.00;;;13.10;99.90;;;;;;4165404;28;21905;-73
2023/03/31 09:52:00;;;;;;;14.80;3.35;;;13.20;99.90;;;;;;4165177;28;20080;-74
2023/03/31 09:54:33;;;;;;;14.30;3.45;;;13.10;99.90;;;;;;4177636;28;20037;-73
2023/03/31 09:56:49;;;;;;;10.82;3.10;;;13.20;99.90;;;;;;4167536;28;20060;-73
2023/03/31 09:58:49;;;;;;;11.05;2.80;;;13.10;99.90;;;;;;4164703;28;20168;-72
2023/03/31 10:01:03;;;;;;;10.05;2.90;;;13.00;99.90;;;;;;4167320;28;20131;-73
2023/03/31 10:03:07;;;;;;;11.43;2.63;;;13.00;99.90;;;;;;4167485;28;20441;-73
2023/03/31 10:05:26;;;;;;;8.75;2.65;;;13.00;99.90;;;;;;4163606;28;20033;-73
2023/03/31 10:07:27;;;;;;;13.65;3.47;;;13.10;99.90;;;;;;4180578;28;20036;-73
2023/03/31 10:09:30;;;;;;;9.68;2.67;;;13.10;99.90;;;;;;4184452;28;20033;-73
2023/03/31 10:11:31;;;;;;;12.20;2.47;;;13.10;99.90;;;;;;4180170;28;20458;-73
2023/03/31 10:13:59;;;;;;;11.55;2.83;;;13.10;99.90;;;;;;4188134;28;20033;-73
2023/03/31 10:16:08;;;;;;;14.60;2.90;;;13.10;99.90;;;;;;4163725;28;20044;-72
2023/03/31 10:18:17;;;;;;;8.35;2.35;;;13.20;99.90;;;;;;4173742;28;20143;-73
2023/03/31 10:20:33;;;;;;;12.68;3.13;;;13.20;99.90;;;;;;4164800;28;20037;-72
2023/03/31 10:22:42;;;;;;;17.30;3.10;;;13.30;99.90;;;;;;4166564;28;20029;-73
2023/03/31 10:24:45;;;;;;;12.25;2.40;;;13.30;99.90;;;;;;4166614;28;20467;-72
2023/03/31 10:26:52;;;;;;;8.18;2.22;;;13.30;99.90;;;;;;4166423;28;20077;-73
2023/03/31 10:28:54;;;;;;;11.73;2.95;;;13.40;99.90;;;;;;4180928;28;20057;-72
2023/03/31 10:31:00;;;;;;;15.00;2.97;;;13.50;99.90;;;;;;4184231;28;20074;-72
2023/03/31 10:33:06;;;;;;;15.30;3.15;;;13.50;99.90;;;;;;4179366;28;20037;-72
2023/03/31 10:35:34;;;;;;;16.55;3.45;;;13.60;99.90;;;;;;4178382;28;20453;-71
2023/03/31 10:37:36;;;;;;;9.98;2.40;;;13.60;99.90;;;;;;4161668;28;20061;-72
2023/03/31 10:39:38;;;;;;;12.70;3.30;;;13.60;99.90;;;;;;4176007;28;20504;-72
2023/03/31 10:41:38;;;;;;;11.60;2.65;;;13.70;99.90;;;;;;4177113;28;20115;-73
2023/03/31 10:43:41;;;;;;;16.23;3.40;;;13.70;99.90;;;;;;4172354;28;20037;-74
2023/03/31 10:45:51;;;;;;;11.20;3.00;;;13.60;99.90;;;;;;4166109;28;20175;-67
2023/03/31 10:47:54;;;;;;;11.27;3.17;;;13.50;99.90;;;;;;4164735;28;20047;-72
2023/03/31 10:49:56;;;;;;;13.80;3.08;;;13.40;99.90;;;;;;4165662;28;20527;-72